createdAt,value
2022-07-31T00:00:22.828Z,16.00
2022-07-31T00:02:50.194Z,16.00
2022-07-31T00:05:17.749Z,16.00
2022-07-31T00:07:45.341Z,16.00
2022-07-31T00:10:12.579Z,16.00
2022-07-31T00:12:39.896Z,15.90
2022-07-31T00:15:08.326Z,16.10
2022-07-31T00:17:35.801Z,16.00
2022-07-31T00:20:03.102Z,15.90
2022-07-31T00:22:30.625Z,15.80
2022-07-31T00:24:57.803Z,15.90
2022-07-31T00:27:25.166Z,16.00
2022-07-31T00:29:52.278Z,16.10
2022-07-31T00:32:19.657Z,16.10
2022-07-31T00:34:46.944Z,16.10
2022-07-31T00:37:14.084Z,16.00
2022-07-31T00:39:41.356Z,16.10
2022-07-31T00:42:19.011Z,16.00
2022-07-31T00:44:47.872Z,16.10
2022-07-31T00:47:16.561Z,16.20
2022-07-31T00:49:44.178Z,16.00
2022-07-31T00:52:11.499Z,16.10
2022-07-31T00:54:38.802Z,16.10
2022-07-31T00:57:06.770Z,16.00
2022-07-31T00:59:34.330Z,16.00
2022-07-31T01:02:01.928Z,16.10
2022-07-31T01:04:31.323Z,16.20
2022-07-31T01:07:01.340Z,16.20
2022-07-31T01:09:29.464Z,15.90
2022-07-31T01:12:24.630Z,16.00
2022-07-31T01:14:53.899Z,16.20
2022-07-31T01:17:22.584Z,16.10
2022-07-31T01:19:50.385Z,16.10
2022-07-31T01:22:42.207Z,16.10
2022-07-31T01:25:22.020Z,16.20
2022-07-31T01:28:10.689Z,16.20
2022-07-31T01:30:43.905Z,16.20
2022-07-31T01:33:13.721Z,16.10
2022-07-31T01:35:46.753Z,16.00
2022-07-31T01:38:18.726Z,16.00
2022-07-31T01:40:47.854Z,16.00
2022-07-31T01:43:26.366Z,16.00
2022-07-31T01:45:58.137Z,16.00
2022-07-31T01:48:25.473Z,16.20
2022-07-31T01:50:54.649Z,16.30
2022-07-31T01:53:23.306Z,16.20
2022-07-31T01:56:02.852Z,16.30
2022-07-31T01:58:34.250Z,16.30
2022-07-31T02:01:04.150Z,16.30
2022-07-31T02:03:42.756Z,16.30
2022-07-31T02:06:15.499Z,16.30
2022-07-31T02:08:46.752Z,16.10
2022-07-31T02:11:14.903Z,16.10
2022-07-31T02:13:42.373Z,16.20
2022-07-31T02:16:09.777Z,16.20
2022-07-31T02:18:37.489Z,16.10
2022-07-31T02:21:04.864Z,16.20
2022-07-31T02:23:32.531Z,16.30
2022-07-31T02:25:59.866Z,16.40
2022-07-31T02:28:27.416Z,16.30
2022-07-31T02:30:54.719Z,16.20
2022-07-31T02:33:23.591Z,16.20
2022-07-31T02:35:51.680Z,16.20
2022-07-31T02:38:23.032Z,16.00
2022-07-31T02:40:51.623Z,16.10
2022-07-31T02:43:19.024Z,16.10
2022-07-31T02:45:46.341Z,16.00
2022-07-31T02:48:13.513Z,15.80
2022-07-31T02:50:41.038Z,15.90
2022-07-31T02:53:08.529Z,16.00
2022-07-31T02:55:35.850Z,16.00
2022-07-31T02:58:03.869Z,15.90
2022-07-31T03:00:31.419Z,15.90
2022-07-31T03:02:58.853Z,15.90
2022-07-31T03:05:26.186Z,15.90
2022-07-31T03:07:53.433Z,15.80
2022-07-31T03:10:20.946Z,15.90
2022-07-31T03:12:49.527Z,16.00
2022-07-31T03:15:18.178Z,16.00
2022-07-31T03:17:45.944Z,15.90
2022-07-31T03:20:14.216Z,15.80
2022-07-31T03:22:42.227Z,15.90
2022-07-31T03:25:09.846Z,16.10
2022-07-31T03:27:37.173Z,16.00
2022-07-31T03:30:05.386Z,15.80
2022-07-31T03:32:32.941Z,15.80
2022-07-31T03:35:00.232Z,15.70
2022-07-31T03:37:27.576Z,15.70
2022-07-31T03:39:54.859Z,15.60
2022-07-31T03:42:22.165Z,15.50
2022-07-31T03:44:49.387Z,15.40
2022-07-31T03:47:17.095Z,15.20
2022-07-31T03:49:44.322Z,15.10
2022-07-31T03:52:12.783Z,15.10
2022-07-31T03:54:41.080Z,15.10
2022-07-31T03:57:08.530Z,15.10
2022-07-31T03:59:39.824Z,14.90
2022-07-31T04:02:14.484Z,15.00
2022-07-31T04:04:44.868Z,15.20
2022-07-31T04:07:12.224Z,15.10
2022-07-31T04:09:39.506Z,15.10
2022-07-31T04:12:07.358Z,14.90
2022-07-31T04:14:34.881Z,14.80
2022-07-31T04:17:02.111Z,14.80
2022-07-31T04:19:32.938Z,14.90
2022-07-31T04:22:00.627Z,15.10
2022-07-31T04:24:28.058Z,15.10
2022-07-31T04:26:55.732Z,15.20
2022-07-31T04:29:23.016Z,15.20
2022-07-31T04:31:50.361Z,15.30
2022-07-31T04:34:17.641Z,15.50
2022-07-31T04:36:44.954Z,15.30
2022-07-31T04:39:12.367Z,15.20
2022-07-31T04:41:40.277Z,15.20
2022-07-31T04:44:07.498Z,15.30
2022-07-31T04:46:34.775Z,15.30
2022-07-31T04:49:02.192Z,15.40
2022-07-31T04:51:29.704Z,15.40
2022-07-31T04:53:57.076Z,15.50
2022-07-31T04:56:37.990Z,15.40
2022-07-31T04:59:08.257Z,15.40
2022-07-31T05:01:35.775Z,15.70
2022-07-31T05:04:03.438Z,15.70
2022-07-31T05:06:50.358Z,15.80
2022-07-31T05:09:25.221Z,15.80
2022-07-31T05:11:54.222Z,15.90
2022-07-31T05:14:21.776Z,16.00
2022-07-31T05:16:49.771Z,16.20
2022-07-31T05:19:17.481Z,16.30
2022-07-31T05:21:53.337Z,16.40
2022-07-31T05:24:32.913Z,16.60
2022-07-31T05:27:04.529Z,16.50
2022-07-31T05:29:32.515Z,16.40
2022-07-31T05:32:09.900Z,16.50
2022-07-31T05:34:37.505Z,16.70
2022-07-31T05:37:04.862Z,16.80
2022-07-31T05:39:32.234Z,16.90
2022-07-31T05:41:59.641Z,17.00
2022-07-31T05:44:27.024Z,17.20
2022-07-31T05:49:20.431Z,17.30
2022-07-31T05:51:48.004Z,17.30
2022-07-31T05:54:15.308Z,17.50
2022-07-31T05:56:43.017Z,17.60
2022-07-31T05:59:10.545Z,17.70
2022-07-31T06:01:38.525Z,17.90
2022-07-31T06:04:05.910Z,18.00
2022-07-31T06:06:33.332Z,18.30
2022-07-31T06:09:04.443Z,18.80
2022-07-31T06:11:32.474Z,19.50
2022-07-31T06:13:59.913Z,20.30
2022-07-31T06:16:27.315Z,20.80
2022-07-31T06:18:54.859Z,21.50
2022-07-31T06:23:48.430Z,22.70
2022-07-31T06:26:16.158Z,23.60
2022-07-31T06:28:49.087Z,23.80
2022-07-31T06:31:20.919Z,23.80
2022-07-31T06:33:48.858Z,23.90
2022-07-31T06:36:17.917Z,23.90
2022-07-31T06:38:46.457Z,23.60
2022-07-31T06:41:34.163Z,23.80
2022-07-31T06:44:01.606Z,24.60
2022-07-31T06:46:29.040Z,25.00
2022-07-31T06:48:56.546Z,24.20
2022-07-31T06:51:32.181Z,24.40
2022-07-31T06:54:03.838Z,25.20
2022-07-31T06:56:31.736Z,25.10
2022-07-31T06:58:59.290Z,24.50
2022-07-31T07:01:26.767Z,25.00
2022-07-31T07:03:54.696Z,25.90
2022-07-31T07:06:22.261Z,26.10
2022-07-31T07:08:50.078Z,25.90
2022-07-31T07:11:17.732Z,26.10
2022-07-31T07:13:46.987Z,26.60
2022-07-31T07:16:15.000Z,26.70
2022-07-31T07:18:43.587Z,26.90
2022-07-31T07:21:11.521Z,26.90
2022-07-31T07:23:39.167Z,26.60
2022-07-31T07:26:06.562Z,25.80
2022-07-31T07:28:34.618Z,25.80
2022-07-31T07:31:02.776Z,26.00
2022-07-31T07:33:39.711Z,25.80
2022-07-31T07:36:22.787Z,25.90
2022-07-31T07:38:51.120Z,25.50
2022-07-31T07:41:18.882Z,24.40
2022-07-31T07:43:51.777Z,24.60
2022-07-31T07:46:21.870Z,25.00
2022-07-31T07:48:51.328Z,25.20
2022-07-31T07:51:19.263Z,25.30
2022-07-31T07:53:46.974Z,25.00
2022-07-31T07:56:14.395Z,25.00
2022-07-31T07:58:41.822Z,24.80
2022-07-31T08:01:09.292Z,24.60
2022-07-31T08:03:49.763Z,24.60
2022-07-31T08:06:23.600Z,24.30
2022-07-31T08:08:51.087Z,24.50
2022-07-31T08:11:19.132Z,24.70
2022-07-31T08:13:50.503Z,24.80
2022-07-31T08:16:19.307Z,24.80
2022-07-31T08:18:46.805Z,24.90
2022-07-31T08:21:14.162Z,24.90
2022-07-31T08:23:41.973Z,25.20
2022-07-31T08:26:09.476Z,25.10
2022-07-31T08:28:36.880Z,25.10
2022-07-31T08:31:04.467Z,25.10
2022-07-31T08:33:33.519Z,25.30
2022-07-31T08:36:01.582Z,25.20
2022-07-31T08:38:29.286Z,25.20
2022-07-31T08:40:56.694Z,24.60
2022-07-31T08:44:02.255Z,24.60
2022-07-31T08:46:11.716Z,24.30
2022-07-31T08:48:41.537Z,23.60
2022-07-31T08:51:12.930Z,23.60
2022-07-31T08:53:40.696Z,24.00
2022-07-31T08:56:08.866Z,24.40
2022-07-31T08:58:39.641Z,24.80
2022-07-31T09:01:08.827Z,24.00
2022-07-31T09:03:36.750Z,23.70
2022-07-31T09:06:05.320Z,23.90
2022-07-31T09:08:36.634Z,24.00
2022-07-31T09:11:08.682Z,23.90
2022-07-31T09:13:36.155Z,24.20
2022-07-31T09:16:04.155Z,24.80
2022-07-31T09:18:31.722Z,24.90
2022-07-31T09:21:03.990Z,25.10
2022-07-31T09:23:32.595Z,24.70
2022-07-31T09:26:02.189Z,24.90
2022-07-31T09:28:41.189Z,24.80
2022-07-31T09:31:10.692Z,25.10
2022-07-31T09:33:45.182Z,25.40
2022-07-31T09:36:14.032Z,25.00
2022-07-31T09:38:42.953Z,24.40
2022-07-31T09:41:56.181Z,24.30
2022-07-31T09:44:00.970Z,24.40
2022-07-31T09:46:38.898Z,24.80
2022-07-31T09:49:06.311Z,25.30
2022-07-31T09:51:47.661Z,25.00
2022-07-31T09:54:25.256Z,25.20
2022-07-31T09:56:52.789Z,25.80
2022-07-31T09:59:20.388Z,25.90
2022-07-31T10:01:51.507Z,25.80
2022-07-31T10:04:19.753Z,25.50
2022-07-31T10:06:52.102Z,25.60
2022-07-31T10:09:20.778Z,24.90
2022-07-31T10:11:50.449Z,24.90
2022-07-31T10:14:29.939Z,24.70
2022-07-31T10:16:58.204Z,25.30
2022-07-31T10:19:27.180Z,25.30
2022-07-31T10:21:58.375Z,24.70
2022-07-31T10:24:28.464Z,24.50
2022-07-31T10:27:10.536Z,24.90
2022-07-31T10:29:41.506Z,25.10
2022-07-31T10:32:09.058Z,25.10
2022-07-31T10:34:36.464Z,25.30
2022-07-31T10:37:15.786Z,25.70
2022-07-31T10:39:47.987Z,26.00
2022-07-31T10:42:52.096Z,26.00
2022-07-31T10:45:19.816Z,26.20
2022-07-31T10:47:57.803Z,26.20
2022-07-31T10:50:26.702Z,26.40
2022-07-31T10:52:58.623Z,26.50
2022-07-31T10:55:30.468Z,26.30
2022-07-31T10:58:07.858Z,25.80
2022-07-31T11:00:35.344Z,25.90
2022-07-31T11:03:23.017Z,26.20
2022-07-31T11:06:01.467Z,26.20
2022-07-31T11:08:40.716Z,26.50
2022-07-31T11:11:08.234Z,26.30
2022-07-31T11:13:48.851Z,26.00
2022-07-31T11:16:16.574Z,26.00
2022-07-31T11:18:46.386Z,26.00
2022-07-31T11:21:37.147Z,26.10
2022-07-31T11:24:02.965Z,26.10
2022-07-31T11:26:42.068Z,26.20
2022-07-31T11:29:58.625Z,26.00
2022-07-31T11:32:03.695Z,26.00
2022-07-31T11:34:51.522Z,26.20
2022-07-31T11:37:46.153Z,26.30
2022-07-31T11:40:16.486Z,26.10
2022-07-31T11:42:52.418Z,26.30
2022-07-31T11:45:27.331Z,26.30
2022-07-31T11:48:10.956Z,25.70
2022-07-31T11:50:42.106Z,25.90
2022-07-31T11:53:09.934Z,26.20
2022-07-31T11:55:54.774Z,26.40
2022-07-31T11:58:23.794Z,26.60
2022-07-31T12:00:58.624Z,26.70
2022-07-31T12:03:30.221Z,26.10
2022-07-31T12:05:57.571Z,26.50
2022-07-31T12:08:25.231Z,26.50
2022-07-31T12:10:56.411Z,26.50
2022-07-31T12:13:24.907Z,26.70
2022-07-31T12:16:03.486Z,26.50
2022-07-31T12:18:32.136Z,26.60
2022-07-31T12:21:01.236Z,26.40
2022-07-31T12:23:41.827Z,26.40
2022-07-31T12:26:12.814Z,26.40
2022-07-31T12:28:41.040Z,26.50
2022-07-31T12:31:08.487Z,26.40
2022-07-31T12:33:43.239Z,26.80
2022-07-31T12:36:17.187Z,26.70
2022-07-31T12:38:48.218Z,26.40
2022-07-31T12:41:16.738Z,26.50
2022-07-31T12:43:51.064Z,26.40
2022-07-31T12:46:23.714Z,26.20
2022-07-31T12:48:51.343Z,26.00
2022-07-31T12:51:44.001Z,26.20
2022-07-31T12:54:08.803Z,26.00
2022-07-31T12:56:37.686Z,25.90
2022-07-31T12:59:05.776Z,25.60
2022-07-31T13:01:33.738Z,25.70
2022-07-31T13:04:03.305Z,25.90
2022-07-31T13:06:31.150Z,26.00
2022-07-31T13:08:58.564Z,26.20
2022-07-31T13:11:26.283Z,26.40
2022-07-31T13:13:57.250Z,26.50
2022-07-31T13:16:24.892Z,26.30
2022-07-31T13:18:52.422Z,26.20
2022-07-31T13:21:19.846Z,26.30
2022-07-31T13:23:47.229Z,26.10
2022-07-31T13:26:14.576Z,26.00
2022-07-31T13:28:42.283Z,25.90
2022-07-31T13:31:09.573Z,25.60
2022-07-31T13:33:37.022Z,25.60
2022-07-31T13:36:06.255Z,25.70
2022-07-31T13:38:33.758Z,25.60
2022-07-31T13:41:19.918Z,25.70
2022-07-31T13:44:00.458Z,25.60
2022-07-31T13:46:28.703Z,25.40
2022-07-31T13:48:57.158Z,25.60
2022-07-31T13:51:28.740Z,25.70
2022-07-31T13:53:56.864Z,25.50
2022-07-31T13:56:38.977Z,25.50
2022-07-31T13:59:12.423Z,25.70
2022-07-31T14:02:03.188Z,26.00
2022-07-31T14:04:32.475Z,26.00
2022-07-31T14:07:03.210Z,26.10
2022-07-31T14:09:34.418Z,26.00
2022-07-31T14:12:04.238Z,26.10
2022-07-31T14:14:32.826Z,26.00
2022-07-31T14:17:00.211Z,26.10
2022-07-31T14:19:27.670Z,26.30
2022-07-31T14:22:06.701Z,26.20
2022-07-31T14:24:38.947Z,26.40
2022-07-31T14:27:06.548Z,26.30
2022-07-31T14:29:36.062Z,26.00
2022-07-31T14:32:04.037Z,26.00
2022-07-31T14:34:35.546Z,25.80
2022-07-31T14:37:03.887Z,25.60
2022-07-31T14:39:31.865Z,25.80
2022-07-31T14:41:59.246Z,25.90
2022-07-31T14:44:28.860Z,26.00
2022-07-31T14:46:56.613Z,26.30
2022-07-31T14:49:24.144Z,26.50
2022-07-31T14:51:51.900Z,26.70
2022-07-31T14:54:19.455Z,26.80
2022-07-31T14:57:00.766Z,26.60
2022-07-31T14:59:32.529Z,26.50
2022-07-31T15:02:00.224Z,26.10
2022-07-31T15:04:27.584Z,26.40
2022-07-31T15:07:07.625Z,26.10
2022-07-31T15:09:42.323Z,26.00
2022-07-31T15:12:10.077Z,25.90
2022-07-31T15:14:38.107Z,26.10
2022-07-31T15:17:06.015Z,26.00
2022-07-31T15:19:33.827Z,26.00
2022-07-31T15:22:11.123Z,26.00
2022-07-31T15:24:48.883Z,25.80
2022-07-31T15:27:25.200Z,25.60
2022-07-31T15:30:04.564Z,25.60
2022-07-31T15:32:38.018Z,25.80
2022-07-31T15:35:07.731Z,25.80
2022-07-31T15:37:39.202Z,25.90
2022-07-31T15:40:08.290Z,26.00
2022-07-31T15:42:40.908Z,25.60
2022-07-31T15:45:10.304Z,25.40
2022-07-31T15:47:38.299Z,25.60
2022-07-31T15:50:06.890Z,25.70
2022-07-31T15:52:34.277Z,25.90
2022-07-31T15:55:01.937Z,25.60
2022-07-31T15:57:29.495Z,25.60
2022-07-31T15:59:56.935Z,25.60
2022-07-31T16:02:24.649Z,25.50
2022-07-31T16:04:54.840Z,25.50
2022-07-31T16:08:33.190Z,25.60
2022-07-31T16:10:15.664Z,25.60
2022-07-31T16:12:48.192Z,25.80
2022-07-31T16:15:16.714Z,25.30
2022-07-31T16:17:44.718Z,25.50
2022-07-31T16:20:26.432Z,25.60
2022-07-31T16:23:01.742Z,25.70
2022-07-31T16:25:34.492Z,25.90
2022-07-31T16:28:03.387Z,25.80
2022-07-31T16:30:31.435Z,25.80
2022-07-31T16:32:58.809Z,25.50
2022-07-31T16:35:29.153Z,25.40
2022-07-31T16:37:56.635Z,25.20
2022-07-31T16:40:30.840Z,25.20
2022-07-31T16:43:48.617Z,25.20
2022-07-31T16:45:54.079Z,25.10
2022-07-31T16:48:21.882Z,25.20
2022-07-31T16:50:53.119Z,25.20
2022-07-31T16:54:10.418Z,25.20
2022-07-31T16:56:11.391Z,25.10
2022-07-31T16:58:38.866Z,25.10
2022-07-31T17:01:59.023Z,25.10
2022-07-31T17:04:01.297Z,25.00
2022-07-31T17:06:35.189Z,25.00
2022-07-31T17:09:17.076Z,24.90
2022-07-31T17:11:55.549Z,24.90
2022-07-31T17:14:26.337Z,24.80
2022-07-31T17:16:54.831Z,24.80
2022-07-31T17:19:35.915Z,24.80
2022-07-31T17:22:04.546Z,24.90
2022-07-31T17:24:32.269Z,24.90
2022-07-31T17:27:00.021Z,24.90
2022-07-31T17:29:27.412Z,24.90
2022-07-31T17:31:54.824Z,24.80
2022-07-31T17:34:22.159Z,24.80
2022-07-31T17:36:50.669Z,24.80
2022-07-31T17:39:18.127Z,24.80
2022-07-31T17:41:45.555Z,24.70
2022-07-31T17:44:14.548Z,24.50
2022-07-31T17:46:48.341Z,24.40
2022-07-31T17:49:20.251Z,24.30
2022-07-31T17:51:58.885Z,24.30
2022-07-31T17:54:28.639Z,24.10
2022-07-31T17:56:56.139Z,24.10
2022-07-31T17:59:23.691Z,24.00
2022-07-31T18:01:53.369Z,24.00
2022-07-31T18:04:21.487Z,23.90
2022-07-31T18:06:54.481Z,23.90
2022-07-31T18:09:23.920Z,23.80
2022-07-31T18:11:52.385Z,23.60
2022-07-31T18:14:20.329Z,23.50
2022-07-31T18:16:48.069Z,23.50
2022-07-31T18:19:16.000Z,23.40
2022-07-31T18:21:43.336Z,23.50
2022-07-31T18:24:10.870Z,23.30
2022-07-31T18:26:38.619Z,23.20
2022-07-31T18:29:06.412Z,23.10
2022-07-31T18:31:35.228Z,22.90
2022-07-31T18:34:06.696Z,22.80
2022-07-31T18:36:34.376Z,22.70
2022-07-31T18:39:02.104Z,22.70
2022-07-31T18:41:29.974Z,22.60
2022-07-31T18:43:57.777Z,22.50
2022-07-31T18:46:25.346Z,22.30
2022-07-31T18:48:55.996Z,22.30
2022-07-31T18:51:25.307Z,22.10
2022-07-31T18:53:54.338Z,22.00
2022-07-31T18:56:26.159Z,22.20
2022-07-31T18:58:53.846Z,22.00
2022-07-31T19:01:21.669Z,22.00
2022-07-31T19:03:49.446Z,22.00
2022-07-31T19:06:17.183Z,21.80
2022-07-31T19:08:44.865Z,21.80
2022-07-31T19:11:12.977Z,21.70
2022-07-31T19:13:40.412Z,21.70
2022-07-31T19:16:09.243Z,21.80
2022-07-31T19:18:37.514Z,21.70
2022-07-31T19:21:23.523Z,21.70
2022-07-31T19:23:53.211Z,21.80
2022-07-31T19:26:21.305Z,21.70
2022-07-31T19:28:48.683Z,21.60
2022-07-31T19:31:16.482Z,21.70
2022-07-31T19:33:43.897Z,21.50
2022-07-31T19:36:11.568Z,21.40
2022-07-31T19:38:40.935Z,21.50
2022-07-31T19:41:08.548Z,21.50
2022-07-31T19:43:36.329Z,21.50
2022-07-31T19:46:11.346Z,21.40
2022-07-31T19:48:44.824Z,21.30
2022-07-31T19:51:13.304Z,21.10
2022-07-31T19:53:40.849Z,21.10
2022-07-31T19:56:08.661Z,21.10
2022-07-31T19:58:36.689Z,21.10
2022-07-31T20:01:05.265Z,20.90
2022-07-31T20:03:33.271Z,21.00
2022-07-31T20:06:01.810Z,20.80
2022-07-31T20:08:32.763Z,20.80
2022-07-31T20:11:04.210Z,20.80
2022-07-31T20:13:35.407Z,20.90
2022-07-31T20:16:03.209Z,20.90
2022-07-31T20:18:30.904Z,20.90
2022-07-31T20:21:05.650Z,21.00
2022-07-31T20:23:34.694Z,20.80
2022-07-31T20:26:02.458Z,20.90
2022-07-31T20:28:29.964Z,20.90
2022-07-31T20:30:57.574Z,20.80
2022-07-31T20:33:25.043Z,20.70
2022-07-31T20:35:53.120Z,20.70
2022-07-31T20:38:21.644Z,20.80
2022-07-31T20:40:53.624Z,20.60
2022-07-31T20:43:26.961Z,20.70
2022-07-31T20:45:57.804Z,20.70
2022-07-31T20:48:32.777Z,20.70
2022-07-31T20:51:01.193Z,20.70
2022-07-31T20:53:28.854Z,20.50
2022-07-31T20:55:56.440Z,20.40
2022-07-31T20:58:24.653Z,20.30
2022-07-31T21:00:52.839Z,20.40
2022-07-31T21:03:20.760Z,20.50
2022-07-31T21:05:48.441Z,20.50
2022-07-31T21:08:16.213Z,20.50
2022-07-31T21:10:43.962Z,20.50
2022-07-31T21:13:11.411Z,20.50
2022-07-31T21:15:43.229Z,20.30
2022-07-31T21:18:17.207Z,20.30
2022-07-31T21:20:51.155Z,20.40
2022-07-31T21:23:21.059Z,20.30
2022-07-31T21:25:48.602Z,20.20
2022-07-31T21:28:16.307Z,20.30
2022-07-31T21:30:43.903Z,20.30
2022-07-31T21:33:11.814Z,20.20
2022-07-31T21:35:40.329Z,20.20
2022-07-31T21:38:10.202Z,20.00
2022-07-31T21:40:39.876Z,20.00
2022-07-31T21:43:07.473Z,20.00
2022-07-31T21:45:50.479Z,20.00
2022-07-31T21:48:23.777Z,20.00
2022-07-31T21:50:51.560Z,20.10
2022-07-31T21:53:18.882Z,20.10
2022-07-31T21:55:46.564Z,20.30
2022-07-31T21:58:14.168Z,20.30
2022-07-31T22:00:41.872Z,20.40
2022-07-31T22:03:09.406Z,20.40
2022-07-31T22:05:55.228Z,20.50
2022-07-31T22:08:23.813Z,20.50
2022-07-31T22:10:51.520Z,20.30
2022-07-31T22:13:19.897Z,20.30
2022-07-31T22:15:58.828Z,20.30
2022-07-31T22:18:32.653Z,20.30
2022-07-31T22:21:00.675Z,20.50
2022-07-31T22:23:28.228Z,20.40
2022-07-31T22:25:55.826Z,20.30
2022-07-31T22:28:23.830Z,20.10
2022-07-31T22:30:51.429Z,20.00
2022-07-31T22:33:18.888Z,20.00
2022-07-31T22:35:59.987Z,19.80
2022-07-31T22:38:29.699Z,19.90
2022-07-31T22:41:00.901Z,19.80
2022-07-31T22:44:11.320Z,19.90
2022-07-31T22:46:16.000Z,19.80
2022-07-31T22:48:45.671Z,20.00
2022-07-31T22:51:14.817Z,20.00
2022-07-31T22:53:43.777Z,20.10
2022-07-31T22:56:11.156Z,20.10
2022-07-31T22:58:38.773Z,20.10
2022-07-31T23:01:06.163Z,20.10
2022-07-31T23:03:33.503Z,20.10
2022-07-31T23:06:03.071Z,20.20
2022-07-31T23:08:53.776Z,20.10
2022-07-31T23:11:23.489Z,19.90
2022-07-31T23:13:52.013Z,19.90
2022-07-31T23:16:20.755Z,19.90
2022-07-31T23:18:48.919Z,19.70
2022-07-31T23:21:17.123Z,19.80
2022-07-31T23:23:48.874Z,19.80
2022-07-31T23:26:20.730Z,19.80
2022-07-31T23:28:48.343Z,19.80
2022-07-31T23:31:15.742Z,19.80
2022-07-31T23:33:43.165Z,19.80
2022-07-31T23:36:10.760Z,19.90
2022-07-31T23:38:38.309Z,19.80
2022-07-31T23:41:05.635Z,19.80
2022-07-31T23:43:32.893Z,19.70
2022-07-31T23:46:00.293Z,19.70
2022-07-31T23:48:30.077Z,19.50
2022-07-31T23:50:57.856Z,19.50
2022-07-31T23:53:25.220Z,19.60
2022-07-31T23:55:52.374Z,19.80
2022-07-31T23:58:19.851Z,19.70
